Lemons, Missouri
Current Conditions -  °F | °C
As of 12:50 AM on Monday 24 Nov 2014 (Local Time) from KTVK Reporting Station
Light Snow Light Snow  
Wind Chill: 23°   Ceiling: NA
Heat Index: 32°   Visibility: 9mi
Dew Point: 32°   Wind: 12mph
Humidity: 100%   Direction: 300°WNW
Pressure: 29.36"   Gusts: 18mph
Location:  40.4961°N, 92.9907°W
Report Text: KTVK 240650Z AUTO 30010G16KT 9SM -SN 00/00 A2936 RMK AO2 P0001
Loading
Personal Weather Stations






























Interactive Weather Map New forecast layout! Learn more

10-Day Weather Forecast

Advertisements
Track Severe Weather on mobile